KLM99C EHAM-EGPH
Flight info
| Callsign | KLM99C |
|---|---|
| Flight time | 1h 8m |
| Altitude | 38000 |
| Route | BERGI L602 SUPUR P1 GODOS DCT ROKAN DCT BAZNA DCT TOWTE DCT AGPED |
| Aircraft | B738/M-SDE2E3FGHIRWXY/LB1 |
Departure
| Time | 2026-04-17 09:02 |
|---|---|
| Airport | Amsterdam Airport Schiphol (EHAM) |
Arrival
| Time | 2026-04-17 10:11 |
|---|---|
| Airport | Edinburgh Airport (EGPH) |
| Time | Latitude | Longitude | Altitude | Speed | Heading |
|---|---|---|---|---|---|
| 2026-04-17 08:26 | 52.30899 | 4.77239 | -3 ft | 0 kts | 3° |
| 2026-04-17 08:54 | 52.30877 | 4.77236 | -3 ft | 4 kts | 8° |
| 2026-04-17 08:54 | 52.30852 | 4.77225 | -3 ft | 4 kts | 37° |
| 2026-04-17 08:54 | 52.30842 | 4.77204 | -3 ft | 0 kts | 76° |
| 2026-04-17 08:59 | 52.30842 | 4.77206 | -3 ft | 1 kts | 82° |
| 2026-04-17 09:00 | 52.30842 | 4.77246 | -3 ft | 7 kts | 92° |
| 2026-04-17 09:00 | 52.30837 | 4.77379 | -3 ft | 12 kts | 94° |
| 2026-04-17 09:00 | 52.30785 | 4.77461 | -3 ft | 12 kts | 181° |
| 2026-04-17 09:00 | 52.30700 | 4.77454 | -3 ft | 12 kts | 182° |
| 2026-04-17 09:01 | 52.30619 | 4.77501 | -3 ft | 14 kts | 153° |
| 2026-04-17 09:01 | 52.30532 | 4.77574 | -3 ft | 14 kts | 153° |
| 2026-04-17 09:01 | 52.30447 | 4.77641 | -3 ft | 9 kts | 166° |
| 2026-04-17 09:01 | 52.30395 | 4.77582 | -3 ft | 11 kts | 239° |
| 2026-04-17 09:02 | 52.30296 | 4.77328 | -5 ft | 43 kts | 238° |
| 2026-04-17 09:02 | 52.30000 | 4.76559 | -4 ft | 115 kts | 238° |
| 2026-04-17 09:02 | 52.29669 | 4.75697 | 8 ft | 153 kts | 238° |
| 2026-04-17 09:02 | 52.29095 | 4.74123 | 651 ft | 158 kts | 237° |
| 2026-04-17 09:03 | 52.28538 | 4.72648 | 1668 ft | 147 kts | 237° |
| 2026-04-17 09:03 | 52.27971 | 4.71197 | 2307 ft | 162 kts | 237° |
| 2026-04-17 09:03 | 52.27236 | 4.69576 | 2606 ft | 193 kts | 226° |
| 2026-04-17 09:03 | 52.26236 | 4.67947 | 2832 ft | 217 kts | 224° |
| 2026-04-17 09:04 | 52.25107 | 4.66175 | 3253 ft | 230 kts | 224° |
| 2026-04-17 09:04 | 52.24118 | 4.64006 | 3605 ft | 250 kts | 248° |
| 2026-04-17 09:04 | 52.23560 | 4.61289 | 4419 ft | 254 kts | 251° |
| 2026-04-17 09:04 | 52.23117 | 4.58494 | 5267 ft | 258 kts | 265° |
| 2026-04-17 09:05 | 52.23445 | 4.55597 | 6127 ft | 265 kts | 294° |
| 2026-04-17 09:05 | 52.24593 | 4.53219 | 7002 ft | 273 kts | 319° |
| 2026-04-17 09:05 | 52.26197 | 4.51499 | 7855 ft | 278 kts | 326° |
| 2026-04-17 09:05 | 52.27881 | 4.49880 | 8687 ft | 284 kts | 326° |
| 2026-04-17 09:06 | 52.29595 | 4.48230 | 9540 ft | 288 kts | 326° |
| 2026-04-17 09:06 | 52.31327 | 4.46533 | 10409 ft | 292 kts | 325° |
| 2026-04-17 09:06 | 52.33121 | 4.44749 | 10807 ft | 314 kts | 325° |
| 2026-04-17 09:06 | 52.35074 | 4.42831 | 11007 ft | 342 kts | 329° |
| 2026-04-17 09:07 | 52.37422 | 4.41688 | 11435 ft | 363 kts | 350° |
| 2026-04-17 09:07 | 52.39958 | 4.41269 | 12166 ft | 369 kts | 352° |
| 2026-04-17 09:07 | 52.42532 | 4.40911 | 12983 ft | 373 kts | 352° |
| 2026-04-17 09:07 | 52.45135 | 4.40554 | 13825 ft | 377 kts | 352° |
| 2026-04-17 09:08 | 52.47766 | 4.40177 | 14591 ft | 382 kts | 352° |
| 2026-04-17 09:08 | 52.50389 | 4.39784 | 15361 ft | 386 kts | 352° |
| 2026-04-17 09:08 | 52.53076 | 4.39369 | 16136 ft | 390 kts | 351° |
| 2026-04-17 09:08 | 52.55791 | 4.38942 | 16938 ft | 394 kts | 351° |
| 2026-04-17 09:09 | 52.58531 | 4.38508 | 17705 ft | 398 kts | 351° |
| 2026-04-17 09:09 | 52.61303 | 4.38067 | 18469 ft | 402 kts | 351° |
| 2026-04-17 09:09 | 52.64101 | 4.37621 | 19133 ft | 406 kts | 351° |
| 2026-04-17 09:09 | 52.66923 | 4.37172 | 19835 ft | 408 kts | 351° |
| 2026-04-17 09:10 | 52.72548 | 4.35838 | 21159 ft | 407 kts | 335° |
| 2026-04-17 09:10 | 52.74984 | 4.33554 | 21815 ft | 401 kts | 317° |
| 2026-04-17 09:10 | 52.76887 | 4.30253 | 22472 ft | 396 kts | 301° |
| 2026-04-17 09:11 | 52.78301 | 4.26359 | 23117 ft | 396 kts | 296° |
| 2026-04-17 09:11 | 52.79631 | 4.22353 | 23715 ft | 399 kts | 295° |
| 2026-04-17 09:11 | 52.80953 | 4.18292 | 24220 ft | 402 kts | 295° |
| 2026-04-17 09:11 | 52.82287 | 4.14210 | 24727 ft | 405 kts | 295° |
| 2026-04-17 09:12 | 52.83637 | 4.10116 | 25240 ft | 407 kts | 296° |
| 2026-04-17 09:12 | 52.85003 | 4.06009 | 25736 ft | 409 kts | 296° |
| 2026-04-17 09:12 | 52.86383 | 4.01878 | 26219 ft | 411 kts | 296° |
| 2026-04-17 09:12 | 52.87772 | 3.97730 | 26670 ft | 413 kts | 296° |
| 2026-04-17 09:13 | 52.89168 | 3.93556 | 27133 ft | 416 kts | 296° |
| 2026-04-17 09:13 | 52.90571 | 3.89357 | 27585 ft | 418 kts | 296° |
| 2026-04-17 09:13 | 52.91978 | 3.85139 | 28025 ft | 420 kts | 295° |
| 2026-04-17 09:13 | 52.93392 | 3.80891 | 28460 ft | 422 kts | 295° |
| 2026-04-17 09:14 | 52.94809 | 3.76625 | 28878 ft | 424 kts | 295° |
| 2026-04-17 09:14 | 52.96232 | 3.72337 | 29280 ft | 425 kts | 295° |
| 2026-04-17 09:14 | 52.97641 | 3.68079 | 29661 ft | 427 kts | 295° |
| 2026-04-17 09:14 | 52.99076 | 3.63751 | 30043 ft | 430 kts | 296° |
| 2026-04-17 09:15 | 53.00843 | 3.59702 | 30362 ft | 439 kts | 309° |
| 2026-04-17 09:15 | 53.03155 | 3.56340 | 30765 ft | 445 kts | 319° |
| 2026-04-17 09:15 | 53.05829 | 3.53739 | 31326 ft | 449 kts | 332° |
| 2026-04-17 09:15 | 53.08767 | 3.51976 | 31923 ft | 447 kts | 336° |
| 2026-04-17 09:16 | 53.11711 | 3.50394 | 32510 ft | 443 kts | 336° |
| 2026-04-17 09:16 | 53.14633 | 3.48827 | 33011 ft | 440 kts | 336° |
| 2026-04-17 09:16 | 53.17529 | 3.47229 | 33441 ft | 438 kts | 335° |
| 2026-04-17 09:16 | 53.20405 | 3.45597 | 33868 ft | 436 kts | 335° |
| 2026-04-17 09:17 | 53.23268 | 3.43951 | 34321 ft | 434 kts | 334° |
| 2026-04-17 09:17 | 53.26114 | 3.42309 | 34676 ft | 432 kts | 335° |
| 2026-04-17 09:17 | 53.28959 | 3.40664 | 34952 ft | 433 kts | 335° |
| 2026-04-17 09:17 | 53.31809 | 3.39015 | 35237 ft | 434 kts | 335° |
| 2026-04-17 09:18 | 53.34659 | 3.37366 | 35558 ft | 433 kts | 335° |
| 2026-04-17 09:18 | 53.37504 | 3.35719 | 35889 ft | 432 kts | 335° |
| 2026-04-17 09:18 | 53.40348 | 3.34070 | 36187 ft | 432 kts | 335° |
| 2026-04-17 09:18 | 53.43193 | 3.32416 | 36481 ft | 432 kts | 335° |
| 2026-04-17 09:19 | 53.46034 | 3.30763 | 36779 ft | 432 kts | 335° |
| 2026-04-17 09:19 | 53.48872 | 3.29109 | 37092 ft | 432 kts | 335° |
| 2026-04-17 09:19 | 53.51706 | 3.27456 | 37391 ft | 431 kts | 335° |
| 2026-04-17 09:19 | 53.54544 | 3.25796 | 37646 ft | 432 kts | 335° |
| 2026-04-17 09:20 | 53.57382 | 3.24136 | 37920 ft | 432 kts | 335° |
| 2026-04-17 09:20 | 53.60219 | 3.22474 | 38213 ft | 432 kts | 335° |
| 2026-04-17 09:20 | 53.65509 | 3.17948 | 38188 ft | 423 kts | 315° |
| 2026-04-17 09:21 | 53.67557 | 3.14457 | 38183 ft | 415 kts | 304° |
| 2026-04-17 09:21 | 53.69079 | 3.10384 | 38188 ft | 408 kts | 295° |
| 2026-04-17 09:21 | 53.71646 | 3.01947 | 38182 ft | 406 kts | 294° |
| 2026-04-17 09:22 | 53.74229 | 2.93405 | 38166 ft | 405 kts | 294° |
| 2026-04-17 09:22 | 53.76793 | 2.85005 | 38160 ft | 402 kts | 294° |
| 2026-04-17 09:23 | 53.79335 | 2.76709 | 38163 ft | 394 kts | 294° |
| 2026-04-17 09:23 | 53.81850 | 2.68481 | 38164 ft | 393 kts | 294° |
| 2026-04-17 09:24 | 53.84353 | 2.60263 | 38162 ft | 393 kts | 294° |
| 2026-04-17 09:24 | 53.86851 | 2.52034 | 38161 ft | 393 kts | 294° |
| 2026-04-17 09:25 | 53.89346 | 2.43790 | 38159 ft | 393 kts | 294° |
| 2026-04-17 09:25 | 53.91836 | 2.35532 | 38163 ft | 394 kts | 293° |
| 2026-04-17 09:26 | 53.94327 | 2.27239 | 38165 ft | 395 kts | 293° |
| 2026-04-17 09:26 | 53.96824 | 2.18900 | 38169 ft | 397 kts | 293° |
| 2026-04-17 09:27 | 53.99334 | 2.10489 | 38164 ft | 401 kts | 293° |
| 2026-04-17 09:27 | 54.01853 | 2.02014 | 38152 ft | 402 kts | 293° |
| 2026-04-17 09:28 | 54.04366 | 1.93535 | 38149 ft | 400 kts | 293° |
| 2026-04-17 09:28 | 54.06864 | 1.85075 | 38144 ft | 399 kts | 292° |
| 2026-04-17 09:29 | 54.09348 | 1.76631 | 38142 ft | 398 kts | 292° |
| 2026-04-17 09:29 | 54.11823 | 1.68184 | 38141 ft | 398 kts | 292° |
| 2026-04-17 09:30 | 54.14291 | 1.59733 | 38139 ft | 398 kts | 292° |
| 2026-04-17 09:30 | 54.16755 | 1.51269 | 38133 ft | 399 kts | 292° |
| 2026-04-17 09:31 | 54.19201 | 1.42795 | 38138 ft | 402 kts | 291° |
| 2026-04-17 09:31 | 54.21583 | 1.34107 | 38133 ft | 405 kts | 291° |
| 2026-04-17 09:32 | 54.23948 | 1.25338 | 38121 ft | 406 kts | 290° |
| 2026-04-17 09:32 | 54.26297 | 1.16631 | 38113 ft | 400 kts | 290° |
| 2026-04-17 09:33 | 54.28628 | 1.07981 | 38125 ft | 401 kts | 290° |
| 2026-04-17 09:33 | 54.30970 | 0.99260 | 38118 ft | 405 kts | 290° |
| 2026-04-17 09:34 | 54.33324 | 0.90466 | 38118 ft | 408 kts | 290° |
| 2026-04-17 09:34 | 54.35685 | 0.81619 | 38095 ft | 408 kts | 290° |
| 2026-04-17 09:35 | 54.38022 | 0.72834 | 38096 ft | 402 kts | 290° |
| 2026-04-17 09:35 | 54.40326 | 0.64131 | 38096 ft | 400 kts | 290° |
| 2026-04-17 09:36 | 54.42615 | 0.55447 | 38092 ft | 399 kts | 290° |
| 2026-04-17 09:36 | 54.44893 | 0.46772 | 38089 ft | 398 kts | 290° |
| 2026-04-17 09:37 | 54.47153 | 0.38133 | 38085 ft | 399 kts | 289° |
| 2026-04-17 09:37 | 54.49427 | 0.29407 | 38087 ft | 401 kts | 289° |
| 2026-04-17 09:38 | 54.51726 | 0.20545 | 38089 ft | 410 kts | 289° |
| 2026-04-17 09:38 | 54.54067 | 0.11487 | 38082 ft | 418 kts | 289° |
| 2026-04-17 09:39 | 54.56431 | 0.02313 | 38072 ft | 420 kts | 289° |
| 2026-04-17 09:39 | 54.58801 | -0.06919 | 38063 ft | 422 kts | 289° |
| 2026-04-17 09:40 | 54.61165 | -0.16167 | 38064 ft | 421 kts | 289° |
| 2026-04-17 09:40 | 54.63519 | -0.25418 | 38059 ft | 420 kts | 289° |
| 2026-04-17 09:41 | 54.65858 | -0.34651 | 38045 ft | 419 kts | 289° |
| 2026-04-17 09:41 | 54.68183 | -0.43869 | 38052 ft | 418 kts | 289° |
| 2026-04-17 09:42 | 54.70492 | -0.53061 | 38042 ft | 416 kts | 288° |
| 2026-04-17 09:42 | 54.72788 | -0.62231 | 38039 ft | 415 kts | 288° |
| 2026-04-17 09:43 | 54.75221 | -0.71302 | 38038 ft | 417 kts | 292° |
| 2026-04-17 09:43 | 54.77949 | -0.80172 | 37869 ft | 421 kts | 293° |
| 2026-04-17 09:44 | 54.79343 | -0.84656 | 37594 ft | 422 kts | 292° |
| 2026-04-17 09:44 | 54.80724 | -0.89119 | 37320 ft | 418 kts | 292° |
| 2026-04-17 09:44 | 54.82089 | -0.93561 | 37055 ft | 416 kts | 292° |
| 2026-04-17 09:44 | 54.83440 | -0.97993 | 36801 ft | 417 kts | 291° |
| 2026-04-17 09:45 | 54.84772 | -1.02390 | 36544 ft | 417 kts | 291° |
| 2026-04-17 09:45 | 54.86120 | -1.06853 | 36294 ft | 417 kts | 291° |
| 2026-04-17 09:45 | 54.87463 | -1.11311 | 36052 ft | 416 kts | 291° |
| 2026-04-17 09:45 | 54.88799 | -1.15753 | 35792 ft | 415 kts | 291° |
| 2026-04-17 09:46 | 54.90132 | -1.20190 | 35247 ft | 414 kts | 290° |
| 2026-04-17 09:46 | 54.91460 | -1.24621 | 34657 ft | 412 kts | 290° |
| 2026-04-17 09:46 | 54.92784 | -1.29050 | 33980 ft | 413 kts | 289° |
| 2026-04-17 09:46 | 54.94107 | -1.33484 | 33182 ft | 413 kts | 289° |
| 2026-04-17 09:47 | 54.95424 | -1.37901 | 32649 ft | 408 kts | 289° |
| 2026-04-17 09:47 | 54.96723 | -1.42262 | 32110 ft | 404 kts | 289° |
| 2026-04-17 09:47 | 54.98006 | -1.46578 | 31614 ft | 400 kts | 289° |
| 2026-04-17 09:47 | 54.99275 | -1.50857 | 31139 ft | 395 kts | 289° |
| 2026-04-17 09:48 | 55.00529 | -1.55096 | 30662 ft | 392 kts | 289° |
| 2026-04-17 09:48 | 55.01768 | -1.59295 | 30197 ft | 388 kts | 289° |
| 2026-04-17 09:48 | 55.02998 | -1.63471 | 29673 ft | 385 kts | 289° |
| 2026-04-17 09:48 | 55.04221 | -1.67632 | 29055 ft | 384 kts | 289° |
| 2026-04-17 09:49 | 55.05429 | -1.71743 | 28595 ft | 379 kts | 289° |
| 2026-04-17 09:49 | 55.06623 | -1.75814 | 28141 ft | 375 kts | 289° |
| 2026-04-17 09:49 | 55.07802 | -1.79845 | 27688 ft | 372 kts | 289° |
| 2026-04-17 09:49 | 55.08969 | -1.83842 | 27230 ft | 368 kts | 289° |
| 2026-04-17 09:50 | 55.10133 | -1.87836 | 26768 ft | 371 kts | 289° |
| 2026-04-17 09:50 | 55.11320 | -1.91936 | 26311 ft | 386 kts | 289° |
| 2026-04-17 09:50 | 55.12553 | -1.96140 | 25783 ft | 389 kts | 291° |
| 2026-04-17 09:50 | 55.13870 | -2.00271 | 25254 ft | 388 kts | 292° |
| 2026-04-17 09:51 | 55.15227 | -2.04350 | 24732 ft | 389 kts | 293° |
| 2026-04-17 09:51 | 55.16595 | -2.08426 | 24217 ft | 389 kts | 293° |
| 2026-04-17 09:51 | 55.17964 | -2.12518 | 23653 ft | 389 kts | 293° |
| 2026-04-17 09:51 | 55.19326 | -2.16617 | 23040 ft | 389 kts | 293° |
| 2026-04-17 09:52 | 55.20678 | -2.20710 | 22466 ft | 388 kts | 293° |
| 2026-04-17 09:52 | 55.21568 | -2.23417 | 22109 ft | 386 kts | 293° |
| 2026-04-17 09:52 | 55.22900 | -2.27478 | 21583 ft | 383 kts | 293° |
| 2026-04-17 09:52 | 55.24219 | -2.31514 | 21064 ft | 381 kts | 293° |
| 2026-04-17 09:53 | 55.25530 | -2.35538 | 20546 ft | 379 kts | 293° |
| 2026-04-17 09:53 | 55.26835 | -2.39550 | 20034 ft | 378 kts | 293° |
| 2026-04-17 09:53 | 55.28132 | -2.43548 | 19520 ft | 377 kts | 293° |
| 2026-04-17 09:53 | 55.29426 | -2.47543 | 19014 ft | 376 kts | 293° |
| 2026-04-17 09:54 | 55.30717 | -2.51533 | 18507 ft | 375 kts | 293° |
| 2026-04-17 09:54 | 55.32001 | -2.55508 | 17968 ft | 373 kts | 293° |
| 2026-04-17 09:54 | 55.33276 | -2.59458 | 17399 ft | 371 kts | 293° |
| 2026-04-17 09:54 | 55.34541 | -2.63383 | 16877 ft | 367 kts | 293° |
| 2026-04-17 09:55 | 55.35792 | -2.67273 | 16364 ft | 364 kts | 293° |
| 2026-04-17 09:55 | 55.37030 | -2.71127 | 15871 ft | 360 kts | 292° |
| 2026-04-17 09:55 | 55.38255 | -2.74950 | 15377 ft | 358 kts | 292° |
| 2026-04-17 09:55 | 55.39452 | -2.78696 | 14892 ft | 355 kts | 292° |
| 2026-04-17 09:56 | 55.40657 | -2.82468 | 14417 ft | 352 kts | 292° |
| 2026-04-17 09:56 | 55.41868 | -2.86268 | 13944 ft | 350 kts | 292° |
| 2026-04-17 09:56 | 55.43040 | -2.89947 | 13429 ft | 349 kts | 292° |
| 2026-04-17 09:56 | 55.44221 | -2.93662 | 12923 ft | 346 kts | 291° |
| 2026-04-17 09:57 | 55.45459 | -2.97294 | 12423 ft | 350 kts | 301° |
| 2026-04-17 09:57 | 55.47321 | -3.00164 | 11950 ft | 364 kts | 324° |
| 2026-04-17 09:57 | 55.49690 | -3.01844 | 11463 ft | 370 kts | 336° |
| 2026-04-17 09:57 | 55.52150 | -3.03176 | 10945 ft | 369 kts | 338° |
| 2026-04-17 09:58 | 55.54610 | -3.04455 | 10447 ft | 368 kts | 338° |
| 2026-04-17 09:58 | 55.57067 | -3.05748 | 9929 ft | 368 kts | 338° |
| 2026-04-17 09:58 | 55.59482 | -3.07046 | 9765 ft | 352 kts | 337° |
| 2026-04-17 09:58 | 55.61742 | -3.08274 | 9695 ft | 329 kts | 336° |
| 2026-04-17 09:59 | 55.63863 | -3.09447 | 9572 ft | 312 kts | 336° |
| 2026-04-17 09:59 | 55.65908 | -3.10590 | 9197 ft | 306 kts | 336° |
| 2026-04-17 09:59 | 55.67927 | -3.11722 | 8739 ft | 303 kts | 335° |
| 2026-04-17 09:59 | 55.69926 | -3.12840 | 8220 ft | 300 kts | 336° |
| 2026-04-17 10:00 | 55.71991 | -3.13333 | 7949 ft | 300 kts | 2° |
| 2026-04-17 10:00 | 55.74000 | -3.12495 | 7553 ft | 297 kts | 18° |
| 2026-04-17 10:00 | 55.75918 | -3.11181 | 7139 ft | 294 kts | 21° |
| 2026-04-17 10:00 | 55.77811 | -3.09811 | 6748 ft | 292 kts | 21° |
| 2026-04-17 10:01 | 55.79646 | -3.08510 | 6638 ft | 277 kts | 20° |
| 2026-04-17 10:01 | 55.81395 | -3.07297 | 6515 ft | 264 kts | 20° |
| 2026-04-17 10:01 | 55.83086 | -3.06139 | 6235 ft | 259 kts | 19° |
| 2026-04-17 10:01 | 55.84751 | -3.05004 | 5997 ft | 251 kts | 18° |
| 2026-04-17 10:02 | 55.86374 | -3.04232 | 5854 ft | 235 kts | 6° |
| 2026-04-17 10:02 | 55.87979 | -3.03760 | 5456 ft | 234 kts | 5° |
| 2026-04-17 10:02 | 55.89559 | -3.03305 | 5135 ft | 232 kts | 5° |
| 2026-04-17 10:02 | 55.91160 | -3.02819 | 4888 ft | 230 kts | 6° |
| 2026-04-17 10:03 | 55.92702 | -3.02337 | 4719 ft | 226 kts | 6° |
| 2026-04-17 10:03 | 55.94237 | -3.01854 | 4563 ft | 221 kts | 4° |
| 2026-04-17 10:03 | 55.95715 | -3.01867 | 4373 ft | 206 kts | 343° |
| 2026-04-17 10:03 | 55.97100 | -3.02243 | 4230 ft | 199 kts | 344° |
| 2026-04-17 10:04 | 55.98465 | -3.02579 | 4087 ft | 198 kts | 345° |
| 2026-04-17 10:04 | 55.99835 | -3.02907 | 3960 ft | 200 kts | 345° |
| 2026-04-17 10:04 | 56.01206 | -3.03261 | 3831 ft | 199 kts | 341° |
| 2026-04-17 10:04 | 56.02555 | -3.03803 | 3668 ft | 199 kts | 339° |
| 2026-04-17 10:05 | 56.03842 | -3.04574 | 3495 ft | 189 kts | 316° |
| 2026-04-17 10:05 | 56.04573 | -3.06260 | 3360 ft | 160 kts | 271° |
| 2026-04-17 10:05 | 56.04399 | -3.07961 | 3320 ft | 131 kts | 236° |
| 2026-04-17 10:05 | 56.04059 | -3.09512 | 3207 ft | 135 kts | 240° |
| 2026-04-17 10:06 | 56.03690 | -3.11053 | 3104 ft | 137 kts | 238° |
| 2026-04-17 10:06 | 56.03287 | -3.12583 | 3052 ft | 133 kts | 235° |
| 2026-04-17 10:06 | 56.02841 | -3.14054 | 2947 ft | 132 kts | 232° |
| 2026-04-17 10:06 | 56.02393 | -3.15431 | 2773 ft | 125 kts | 231° |
| 2026-04-17 10:07 | 56.01953 | -3.16748 | 2596 ft | 122 kts | 231° |
| 2026-04-17 10:07 | 56.01513 | -3.18047 | 2443 ft | 123 kts | 230° |
| 2026-04-17 10:07 | 56.01067 | -3.19358 | 2275 ft | 124 kts | 231° |
| 2026-04-17 10:07 | 56.00612 | -3.20694 | 2106 ft | 127 kts | 231° |
| 2026-04-17 10:08 | 56.00154 | -3.22045 | 1925 ft | 126 kts | 231° |
| 2026-04-17 10:08 | 55.99700 | -3.23382 | 1757 ft | 126 kts | 231° |
| 2026-04-17 10:08 | 55.99242 | -3.24729 | 1582 ft | 128 kts | 231° |
| 2026-04-17 10:08 | 55.98780 | -3.26090 | 1414 ft | 128 kts | 232° |
| 2026-04-17 10:09 | 55.98324 | -3.27435 | 1234 ft | 126 kts | 232° |
| 2026-04-17 10:09 | 55.97852 | -3.28824 | 1059 ft | 135 kts | 232° |
| 2026-04-17 10:09 | 55.97359 | -3.30279 | 859 ft | 137 kts | 234° |
| 2026-04-17 10:09 | 55.96868 | -3.31732 | 659 ft | 136 kts | 234° |
| 2026-04-17 10:10 | 55.96402 | -3.33148 | 511 ft | 135 kts | 235° |
| 2026-04-17 10:10 | 55.95899 | -3.34587 | 303 ft | 138 kts | 234° |
| 2026-04-17 10:10 | 55.95402 | -3.36076 | 120 ft | 137 kts | 233° |
| 2026-04-17 10:11 | 55.94741 | -3.38010 | 113 ft | 16 kts | 235° |
| 2026-04-17 10:11 | 55.94661 | -3.38025 | 112 ft | 13 kts | 149° |
| 2026-04-17 10:11 | 55.94590 | -3.37933 | 115 ft | 10 kts | 118° |
| 2026-04-17 10:11 | 55.94610 | -3.37827 | 112 ft | 9 kts | 58° |
| 2026-04-17 10:12 | 55.94650 | -3.37709 | 113 ft | 14 kts | 60° |
| 2026-04-17 10:12 | 55.94716 | -3.37514 | 114 ft | 23 kts | 59° |
| 2026-04-17 10:12 | 55.94811 | -3.37234 | 115 ft | 29 kts | 58° |
| 2026-04-17 10:12 | 55.94887 | -3.37010 | 115 ft | 11 kts | 59° |
| 2026-04-17 10:13 | 55.94902 | -3.36968 | 112 ft | 0 kts | 59° |
| 2026-04-17 10:16 | 55.94905 | -3.36958 | 113 ft | 3 kts | 59° |
| 2026-04-17 10:16 | 55.94923 | -3.36864 | 115 ft | 13 kts | 100° |
| 2026-04-17 10:17 | 55.94830 | -3.36779 | 115 ft | 18 kts | 178° |
| 2026-04-17 10:17 | 55.94711 | -3.36737 | 115 ft | 17 kts | 177° |
| 2026-04-17 10:17 | 55.94632 | -3.36735 | 115 ft | 1 kts | 179° |
| 2026-04-17 10:17 | 55.94621 | -3.36731 | 115 ft | 3 kts | 163° |
| 2026-04-17 10:18 | 55.94612 | -3.36693 | 114 ft | 6 kts | 99° |
| 2026-04-17 10:18 | 55.94612 | -3.36644 | 115 ft | 2 kts | 88° |
| 2026-04-17 10:18 | 55.94612 | -3.36634 | 115 ft | 0 kts | 89° |